Time,TemperatureF,DewpointF,PressureIn,WindDirection,WindDirectionDegrees,WindSpeedMPH,WindSpeedGustMPH,Humidity,HourlyPrecipIn,Conditions,Clouds,dailyrainin,SolarRadiationWatts/m^2,SoftwareType,DateUTC
2013-02-14 00:00:00,25.5,23.8,29.86,SW,229,2.0,7.0,93,0.00,,---,0.04,0.00,VWS V14.01,2013-02-14 05:00:00,
2013-02-14 00:06:00,25.4,23.7,29.86,SW,229,3.0,5.0,93,0.00,,---,0.00,0.00,VWS V14.01,2013-02-14 05:06:00,
2013-02-14 00:11:00,25.3,23.6,29.86,SW,229,4.0,5.0,93,0.00,,---,0.00,0.00,VWS V14.01,2013-02-14 05:11:00,
2013-02-14 00:16:00,25.3,23.6,29.86,SW,229,3.0,5.0,93,0.00,,---,0.00,0.00,VWS V14.01,2013-02-14 05:16:00,
2013-02-14 00:21:00,25.3,23.6,29.86,SW,229,5.0,6.0,93,0.00,,---,0.00,0.00,VWS V14.01,2013-02-14 05:21:00,
2013-02-14 00:26:00,25.4,23.7,29.86,SW,229,2.0,6.0,93,0.00,,---,0.00,0.00,VWS V14.01,2013-02-14 05:26:00,
2013-02-14 00:30:00,26.7,25.2,29.87,SW,229,1.0,7.0,94,0.00,,---,0.00,0.00,VWS V14.01,2013-02-14 05:30:00,
2013-02-14 00:31:00,25.4,23.7,29.86,SW,229,2.0,3.0,93,0.00,,---,0.00,0.00,VWS V14.01,2013-02-14 05:31:00,
2013-02-14 00:36:00,25.5,23.8,29.86,SW,229,3.0,5.0,93,0.00,,---,0.00,0.00,VWS V14.01,2013-02-14 05:36:00,
2013-02-14 00:41:00,25.5,23.8,29.86,SW,229,3.0,7.0,93,0.00,,---,0.00,0.00,VWS V14.01,2013-02-14 05:41:00,
2013-02-14 00:46:00,25.6,23.9,29.86,SW,229,4.0,7.0,93,0.00,,---,0.00,0.00,VWS V14.01,2013-02-14 05:46:00,
2013-02-14 00:51:00,25.6,23.9,29.86,SW,229,2.0,7.0,93,0.00,,---,0.00,0.00,VWS V14.01,2013-02-14 05:51:00,
2013-02-14 00:56:00,25.6,23.9,29.86,SW,229,1.0,7.0,93,0.00,,---,0.00,0.00,VWS V14.01,2013-02-14 05:56:00,
2013-02-14 01:00:00,26.8,25.3,29.86,SW,229,1.0,5.0,94,0.00,,---,0.00,0.00,VWS V14.01,2013-02-14 06:00:00,
2013-02-14 01:01:00,25.7,24.0,29.87,SW,229,4.0,4.0,93,0.00,,---,0.00,0.00,VWS V14.01,2013-02-14 06:01:00,
2013-02-14 01:06:00,26.0,24.5,29.87,SW,229,4.0,6.0,94,0.00,,---,0.00,0.00,VWS V14.01,2013-02-14 06:06:00,
2013-02-14 01:11:00,26.2,24.7,29.87,SW,229,0.0,6.0,94,0.00,,---,0.00,0.00,VWS V14.01,2013-02-14 06:11:00,
2013-02-14 01:16:00,26.4,24.9,29.87,SW,229,3.0,6.0,94,0.00,,---,0.00,0.00,VWS V14.01,2013-02-14 06:16:00,
2013-02-14 01:21:00,26.5,25.0,29.87,SW,229,4.0,7.0,94,0.00,,---,0.00,0.00,VWS V14.01,2013-02-14 06:21:00,
2013-02-14 01:26:00,26.6,25.1,29.87,SW,229,2.0,7.0,94,0.00,,---,0.00,0.00,VWS V14.01,2013-02-14 06:26:00,
2013-02-14 01:30:00,26.9,25.4,29.86,SW,229,0.0,5.0,94,0.00,,---,0.00,0.00,VWS V14.01,2013-02-14 06:30:00,
2013-02-14 01:31:00,26.7,25.2,29.87,SW,229,3.0,3.0,94,0.00,,---,0.00,0.00,VWS V14.01,2013-02-14 06:31:00,
2013-02-14 01:36:00,26.7,25.2,29.86,SW,229,2.0,4.0,94,0.00,,---,0.00,0.00,VWS V14.01,2013-02-14 06:36:00,
2013-02-14 01:41:00,26.7,25.2,29.86,SW,229,2.0,4.0,94,0.00,,---,0.00,0.00,VWS V14.01,2013-02-14 06:41:00,
2013-02-14 01:46:00,26.8,25.3,29.86,SW,229,2.0,5.0,94,0.00,,---,0.00,0.00,VWS V14.01,2013-02-14 06:46:00,
2013-02-14 01:51:00,26.8,25.3,29.86,SW,229,2.0,5.0,94,0.00,,---,0.00,0.00,VWS V14.01,2013-02-14 06:51:00,
2013-02-14 01:56:00,26.8,25.3,29.86,SW,229,2.0,5.0,94,0.00,,---,0.00,0.00,VWS V14.01,2013-02-14 06:56:00,
2013-02-14 02:00:00,27.0,25.2,29.87,SW,229,2.0,6.0,93,0.00,,---,0.00,0.00,VWS V14.01,2013-02-14 07:00:00,
2013-02-14 02:01:00,26.8,25.3,29.86,SW,229,1.0,2.0,94,0.00,,---,0.00,0.00,VWS V14.01,2013-02-14 07:01:00,
2013-02-14 02:06:00,26.8,25.3,29.86,SW,229,3.0,5.0,94,0.00,,---,0.00,0.00,VWS V14.01,2013-02-14 07:06:00,
2013-02-14 02:11:00,26.8,25.3,29.86,SW,229,1.0,5.0,94,0.00,,---,0.00,0.00,VWS V14.01,2013-02-14 07:11:00,
2013-02-14 02:16:00,26.8,25.3,29.86,SW,229,3.0,5.0,94,0.00,,---,0.00,0.00,VWS V14.01,2013-02-14 07:16:00,
2013-02-14 02:21:00,26.8,25.3,29.86,SW,229,1.0,5.0,94,0.00,,---,0.00,0.00,VWS V14.01,2013-02-14 07:21:00,
2013-02-14 02:26:00,26.9,25.4,29.86,SW,229,2.0,5.0,94,0.00,,---,0.00,0.00,VWS V14.01,2013-02-14 07:26:00,
2013-02-14 02:30:00,26.7,25.0,29.86,SW,229,3.0,8.0,93,0.00,,---,0.00,0.00,VWS V14.01,2013-02-14 07:30:00,
2013-02-14 02:31:00,26.9,25.4,29.86,SW,229,0.0,2.0,94,0.00,,---,0.00,0.00,VWS V14.01,2013-02-14 07:31:00,
2013-02-14 02:36:00,26.9,25.4,29.86,SW,229,1.0,4.0,94,0.00,,---,0.00,0.00,VWS V14.01,2013-02-14 07:36:00,
2013-02-14 02:41:00,26.9,25.1,29.86,SW,229,0.0,4.0,93,0.00,,---,0.00,0.00,VWS V14.01,2013-02-14 07:41:00,
2013-02-14 02:46:00,27.0,25.2,29.86,SW,229,4.0,6.0,93,0.00,,---,0.00,0.00,VWS V14.01,2013-02-14 07:46:00,
2013-02-14 02:51:00,27.0,25.2,29.87,SW,229,0.0,6.0,93,0.00,,---,0.00,0.00,VWS V14.01,2013-02-14 07:51:00,
2013-02-14 02:56:00,27.1,25.4,29.87,SW,229,1.0,6.0,93,0.00,,---,0.00,0.00,VWS V14.01,2013-02-14 07:56:00,
2013-02-14 03:00:00,26.0,24.3,29.86,SW,229,2.0,9.0,93,0.00,,---,0.00,0.00,VWS V14.01,2013-02-14 08:00:00,
2013-02-14 03:01:00,27.0,25.2,29.86,SW,229,0.0,3.0,93,0.00,,---,0.00,0.00,VWS V14.01,2013-02-14 08:01:00,
2013-02-14 03:06:00,26.9,25.1,29.86,SW,229,2.0,4.0,93,0.00,,---,0.00,0.00,VWS V14.01,2013-02-14 08:06:00,
2013-02-14 03:11:00,26.9,25.1,29.86,SW,229,1.0,5.0,93,0.00,,---,0.00,0.00,VWS V14.01,2013-02-14 08:11:00,
2013-02-14 03:16:00,26.9,25.1,29.86,SW,229,0.0,6.0,93,0.00,,---,0.00,0.00,VWS V14.01,2013-02-14 08:16:00,
2013-02-14 03:21:00,26.9,25.1,29.86,SW,229,0.0,8.0,93,0.00,,---,0.00,0.00,VWS V14.01,2013-02-14 08:21:00,
2013-02-14 03:26:00,26.8,25.0,29.86,SW,229,1.0,8.0,93,0.00,,---,0.00,0.00,VWS V14.01,2013-02-14 08:26:00,
2013-02-14 03:30:00,26.5,24.8,29.86,SW,229,2.0,9.0,93,0.00,,---,0.00,0.00,VWS V14.01,2013-02-14 08:30:00,
2013-02-14 03:32:00,26.7,25.0,29.86,SW,229,2.0,4.0,93,0.00,,---,0.00,0.00,VWS V14.01,2013-02-14 08:32:00,
2013-02-14 03:37:00,26.6,24.9,29.86,SW,229,1.0,6.0,93,0.00,,---,0.00,0.00,VWS V14.01,2013-02-14 08:37:00,
2013-02-14 03:42:00,26.4,24.4,29.87,SW,229,4.0,9.0,92,0.00,,---,0.00,0.00,VWS V14.01,2013-02-14 08:42:00,
2013-02-14 03:47:00,26.2,24.2,29.87,SW,229,3.0,9.0,92,0.00,,---,0.00,0.00,VWS V14.01,2013-02-14 08:47:00,
2013-02-14 03:52:00,26.0,24.0,29.87,SW,229,2.0,9.0,92,0.00,,---,0.00,0.00,VWS V14.01,2013-02-14 08:52:00,
2013-02-14 03:57:00,26.0,24.3,29.86,SW,229,3.0,9.0,93,0.00,,---,0.00,0.00,VWS V14.01,2013-02-14 08:57:00,
2013-02-14 04:00:00,27.5,25.8,29.87,SW,229,3.0,10.0,93,0.00,,---,0.00,0.00,VWS V14.01,2013-02-14 09:00:00,
2013-02-14 04:02:00,26.0,24.3,29.87,SW,229,3.0,4.0,93,0.00,,---,0.00,0.00,VWS V14.01,2013-02-14 09:02:00,
2013-02-14 04:07:00,26.0,24.3,29.87,SW,229,1.0,5.0,93,0.00,,---,0.00,0.00,VWS V14.01,2013-02-14 09:07:00,
2013-02-14 04:12:00,26.1,24.4,29.87,SW,229,2.0,7.0,93,0.00,,---,0.00,0.00,VWS V14.01,2013-02-14 09:12:00,
2013-02-14 04:17:00,26.3,24.6,29.87,SW,229,2.0,7.0,93,0.00,,---,0.00,0.00,VWS V14.01,2013-02-14 09:17:00,
2013-02-14 04:22:00,26.3,24.6,29.87,SW,229,1.0,7.0,93,0.00,,---,0.00,0.00,VWS V14.01,2013-02-14 09:22:00,
2013-02-14 04:27:00,26.5,24.8,29.86,SW,229,4.0,9.0,93,0.00,,---,0.00,0.00,VWS V14.01,2013-02-14 09:27:00,
2013-02-14 04:30:00,28.7,27.2,29.87,SW,229,5.0,11.0,94,0.00,,---,0.00,0.00,VWS V14.01,2013-02-14 09:30:00,
2013-02-14 04:32:00,26.5,24.8,29.87,SW,229,6.0,6.0,93,0.00,,---,0.00,0.00,VWS V14.01,2013-02-14 09:32:00,
2013-02-14 04:37:00,26.7,25.0,29.87,SW,229,2.0,7.0,93,0.00,,---,0.00,0.00,VWS V14.01,2013-02-14 09:37:00,
2013-02-14 04:42:00,26.9,25.1,29.87,SW,229,1.0,9.0,93,0.00,,---,0.00,0.00,VWS V14.01,2013-02-14 09:42:00,
2013-02-14 04:47:00,27.0,25.2,29.87,SW,229,3.0,9.0,93,0.00,,---,0.00,0.00,VWS V14.01,2013-02-14 09:47:00,
2013-02-14 04:52:00,27.2,25.5,29.87,SW,229,5.0,9.0,93,0.00,,---,0.00,0.00,VWS V14.01,2013-02-14 09:52:00,
2013-02-14 04:57:00,27.4,25.6,29.87,SW,229,4.0,9.0,93,0.00,,---,0.00,0.00,VWS V14.01,2013-02-14 09:57:00,
2013-02-14 05:00:00,29.6,28.1,29.87,SW,229,4.0,11.0,94,0.00,,---,0.00,0.00,VWS V14.01,2013-02-14 10:00:00,
2013-02-14 05:02:00,27.5,25.8,29.87,SW,229,3.0,6.0,93,0.00,,---,0.00,0.00,VWS V14.01,2013-02-14 10:02:00,
2013-02-14 05:07:00,27.7,25.9,29.87,SW,229,2.0,10.0,93,0.00,,---,0.00,0.00,VWS V14.01,2013-02-14 10:07:00,
2013-02-14 05:12:00,27.9,26.1,29.87,SW,229,5.0,11.0,93,0.00,,---,0.00,0.00,VWS V14.01,2013-02-14 10:12:00,
2013-02-14 05:17:00,28.1,26.3,29.87,SW,229,3.0,11.0,93,0.00,,---,0.00,0.00,VWS V14.01,2013-02-14 10:17:00,
2013-02-14 05:22:00,28.3,26.5,29.86,SW,229,6.0,11.0,93,0.00,,---,0.00,0.00,VWS V14.01,2013-02-14 10:22:00,
2013-02-14 05:27:00,28.5,27.0,29.86,SW,229,5.0,11.0,94,0.00,,---,0.00,0.00,VWS V14.01,2013-02-14 10:27:00,
2013-02-14 05:30:00,30.2,28.4,29.87,SW,229,3.0,10.0,93,0.00,,---,0.00,0.00,VWS V14.01,2013-02-14 10:30:00,
2013-02-14 05:32:00,28.7,26.9,29.86,SW,229,5.0,6.0,93,0.00,,---,0.00,0.00,VWS V14.01,2013-02-14 10:32:00,
2013-02-14 05:37:00,28.9,27.1,29.86,SW,229,5.0,11.0,93,0.00,,---,0.00,0.00,VWS V14.01,2013-02-14 10:37:00,
2013-02-14 05:42:00,29.1,27.6,29.87,SW,229,3.0,11.0,94,0.00,,---,0.00,0.00,VWS V14.01,2013-02-14 10:42:00,
2013-02-14 05:47:00,29.2,27.4,29.87,SW,229,6.0,11.0,93,0.00,,---,0.00,0.00,VWS V14.01,2013-02-14 10:47:00,
2013-02-14 05:52:00,29.4,27.6,29.87,SW,229,3.0,11.0,93,0.00,,---,0.00,0.00,VWS V14.01,2013-02-14 10:52:00,
2013-02-14 05:57:00,29.5,28.0,29.87,SW,229,2.0,11.0,94,0.00,,---,0.00,0.00,VWS V14.01,2013-02-14 10:57:00,
2013-02-14 06:00:00,30.5,28.7,29.87,SW,229,2.0,7.0,93,0.00,,---,0.00,0.00,VWS V14.01,2013-02-14 11:00:00,
2013-02-14 06:02:00,29.6,28.1,29.87,SW,229,9.0,9.0,94,0.00,,---,0.00,0.00,VWS V14.01,2013-02-14 11:02:00,
2013-02-14 06:07:00,29.8,28.0,29.87,SW,229,4.0,9.0,93,0.00,,---,0.00,0.00,VWS V14.01,2013-02-14 11:07:00,
2013-02-14 06:12:00,29.9,28.1,29.87,SW,229,2.0,10.0,93,0.00,,---,0.00,0.00,VWS V14.01,2013-02-14 11:12:00,
2013-02-14 06:17:00,30.0,28.2,29.87,SW,229,4.0,10.0,93,0.00,,---,0.00,0.00,VWS V14.01,2013-02-14 11:17:00,
2013-02-14 06:22:00,30.1,28.3,29.87,SW,229,3.0,10.0,93,0.00,,---,0.00,0.00,VWS V14.01,2013-02-14 11:22:00,
2013-02-14 06:27:00,30.2,28.4,29.87,SW,229,2.0,10.0,93,0.00,,---,0.00,0.00,VWS V14.01,2013-02-14 11:27:00,
2013-02-14 06:30:00,30.0,28.2,29.87,SW,229,0.0,6.0,93,0.00,,---,0.00,0.00,VWS V14.01,2013-02-14 11:30:00,
2013-02-14 06:32:00,30.3,28.5,29.87,SW,229,3.0,6.0,93,0.00,,---,0.00,0.00,VWS V14.01,2013-02-14 11:32:00,
2013-02-14 06:37:00,30.3,28.5,29.87,SW,229,7.0,7.0,93,0.00,,---,0.00,0.00,VWS V14.01,2013-02-14 11:37:00,
2013-02-14 06:42:00,30.4,28.6,29.87,SW,229,3.0,7.0,93,0.00,,---,0.00,0.00,VWS V14.01,2013-02-14 11:42:00,
2013-02-14 06:47:00,30.5,28.7,29.87,SW,229,1.0,7.0,93,0.00,,---,0.00,0.00,VWS V14.01,2013-02-14 11:47:00,
2013-02-14 06:52:00,30.5,28.7,29.87,SW,229,2.0,7.0,93,0.00,,---,0.00,0.00,VWS V14.01,2013-02-14 11:52:00,
2013-02-14 06:57:00,30.5,28.7,29.87,SW,229,0.0,7.0,93,0.00,,---,0.00,0.00,VWS V14.01,2013-02-14 11:57:00,
2013-02-14 07:00:00,29.8,28.0,29.87,SW,229,1.0,4.0,93,0.00,,---,0.00,14.00,VWS V14.01,2013-02-14 12:00:00,
2013-02-14 07:02:00,30.5,28.7,29.87,SW,229,2.0,4.0,93,0.00,,---,0.00,0.00,VWS V14.01,2013-02-14 12:02:00,
2013-02-14 07:07:00,30.4,28.6,29.87,SW,229,1.0,5.0,93,0.00,,---,0.00,0.00,VWS V14.01,2013-02-14 12:07:00,
2013-02-14 07:12:00,30.3,28.5,29.87,SW,229,0.0,6.0,93,0.00,,---,0.00,0.00,VWS V14.01,2013-02-14 12:12:00,
2013-02-14 07:18:00,30.2,28.4,29.87,SW,229,0.0,6.0,93,0.00,,---,0.00,0.00,VWS V14.01,2013-02-14 12:18:00,
2013-02-14 07:23:00,30.1,28.3,29.87,SW,229,0.0,6.0,93,0.00,,---,0.00,0.00,VWS V14.01,2013-02-14 12:23:00,
2013-02-14 07:29:00,30.0,28.2,29.87,SW,229,1.0,6.0,93,0.00,,---,0.00,0.00,VWS V14.01,2013-02-14 12:29:00,
2013-02-14 07:30:00,30.2,28.4,29.88,SW,229,0.0,7.0,93,0.00,,---,0.00,19.00,VWS V14.01,2013-02-14 12:30:00,
2013-02-14 07:34:00,29.9,28.1,29.87,SW,229,0.0,2.0,93,0.00,,---,0.00,0.00,VWS V14.01,2013-02-14 12:34:00,
2013-02-14 07:39:00,29.9,28.1,29.87,SW,229,1.0,4.0,93,0.00,,---,0.00,5.00,VWS V14.01,2013-02-14 12:39:00,
2013-02-14 07:44:00,29.8,28.0,29.87,SW,229,2.0,4.0,93,0.00,,---,0.00,5.00,VWS V14.01,2013-02-14 12:44:00,
2013-02-14 07:49:00,29.8,28.0,29.87,SW,229,1.0,4.0,93,0.00,,---,0.00,7.00,VWS V14.01,2013-02-14 12:49:00,
2013-02-14 07:54:00,29.8,28.0,29.88,SW,229,0.0,4.0,93,0.00,,---,0.00,9.00,VWS V14.01,2013-02-14 12:54:00,
2013-02-14 07:59:00,29.8,28.0,29.87,SW,229,2.0,4.0,93,0.00,,---,0.00,12.00,VWS V14.01,2013-02-14 12:59:00,
2013-02-14 08:00:00,31.0,29.2,29.89,SW,229,1.0,6.0,93,0.00,,---,0.00,40.00,VWS V14.01,2013-02-14 13:00:00,
2013-02-14 08:04:00,29.8,28.0,29.88,SW,229,0.0,4.0,93,0.00,,---,0.00,16.00,VWS V14.01,2013-02-14 13:04:00,
2013-02-14 08:09:00,29.8,28.0,29.88,SW,229,2.0,7.0,93,0.00,,---,0.00,18.00,VWS V14.01,2013-02-14 13:09:00,
2013-02-14 08:14:00,29.8,28.0,29.88,SW,229,1.0,7.0,93,0.00,,---,0.00,19.00,VWS V14.01,2013-02-14 13:14:00,
2013-02-14 08:19:00,29.9,28.1,29.88,SW,229,0.0,7.0,93,0.00,,---,0.00,21.00,VWS V14.01,2013-02-14 13:19:00,
2013-02-14 08:24:00,30.0,28.2,29.89,SW,229,0.0,7.0,93,0.00,,---,0.00,18.00,VWS V14.01,2013-02-14 13:24:00,
2013-02-14 08:29:00,30.1,28.3,29.89,SW,229,0.0,7.0,93,0.00,,---,0.00,19.00,VWS V14.01,2013-02-14 13:29:00,
2013-02-14 08:30:00,31.9,30.4,29.88,SSW,212,6.0,12.0,94,0.00,,---,0.00,72.00,VWS V14.01,2013-02-14 13:30:00,
2013-02-14 08:34:00,30.2,28.4,29.89,SW,229,0.0,4.0,93,0.00,,---,0.00,19.00,VWS V14.01,2013-02-14 13:34:00,
2013-02-14 08:39:00,30.4,28.6,29.89,SW,229,1.0,4.0,93,0.00,,---,0.00,18.00,VWS V14.01,2013-02-14 13:39:00,
2013-02-14 08:44:00,30.5,28.7,29.89,SW,229,0.0,4.0,93,0.00,,---,0.00,21.00,VWS V14.01,2013-02-14 13:44:00,
2013-02-14 08:49:00,30.7,28.9,29.89,SW,229,2.0,5.0,93,0.00,,---,0.00,37.00,VWS V14.01,2013-02-14 13:49:00,
2013-02-14 08:54:00,30.8,29.0,29.89,SW,229,1.0,5.0,93,0.00,,---,0.00,40.00,VWS V14.01,2013-02-14 13:54:00,
2013-02-14 08:59:00,31.0,29.2,29.89,SW,229,6.0,6.0,93,0.00,,---,0.00,37.00,VWS V14.01,2013-02-14 13:59:00,
2013-02-14 09:00:00,32.9,31.4,29.88,SSW,209,7.0,11.0,94,0.00,,---,0.00,98.00,VWS V14.01,2013-02-14 14:00:00,
2013-02-14 09:04:00,31.1,29.3,29.89,SW,229,3.0,5.0,93,0.00,,---,0.00,44.00,VWS V14.01,2013-02-14 14:04:00,
2013-02-14 09:09:00,31.2,29.4,29.89,SW,229,1.0,6.0,93,0.00,,---,0.00,47.00,VWS V14.01,2013-02-14 14:09:00,
2013-02-14 09:14:00,31.3,29.5,29.89,SW,229,1.0,6.0,93,0.00,,---,0.00,51.00,VWS V14.01,2013-02-14 14:14:00,
2013-02-14 09:19:00,31.5,29.7,29.89,SW,229,3.0,6.0,93,0.00,,---,0.00,69.00,VWS V14.01,2013-02-14 14:19:00,
2013-02-14 09:24:00,31.6,29.8,29.88,SW,228,4.0,10.0,93,0.00,,---,0.00,62.00,VWS V14.01,2013-02-14 14:24:00,
2013-02-14 09:29:00,31.9,30.4,29.88,South,189,3.0,12.0,94,0.00,,---,0.00,72.00,VWS V14.01,2013-02-14 14:29:00,
2013-02-14 09:30:00,33.2,31.7,29.88,SW,220,6.0,15.0,94,0.00,,---,0.00,86.00,VWS V14.01,2013-02-14 14:30:00,
2013-02-14 09:34:00,32.0,30.5,29.89,SSW,198,5.0,8.0,94,0.00,,---,0.00,72.00,VWS V14.01,2013-02-14 14:34:00,
2013-02-14 09:39:00,32.2,30.4,29.89,SW,217,10.0,10.0,93,0.00,,---,0.00,65.00,VWS V14.01,2013-02-14 14:39:00,
2013-02-14 09:44:00,32.4,30.6,29.88,SW,217,6.0,11.0,93,0.00,,---,0.00,81.00,VWS V14.01,2013-02-14 14:44:00,
2013-02-14 09:49:00,32.6,31.1,29.88,South,186,4.0,11.0,94,0.00,,---,0.00,81.00,VWS V14.01,2013-02-14 14:49:00,
2013-02-14 09:54:00,32.7,31.2,29.88,South,185,7.0,11.0,94,0.00,,---,0.00,77.00,VWS V14.01,2013-02-14 14:54:00,
2013-02-14 09:59:00,32.8,31.3,29.88,South,184,5.0,11.0,94,0.00,,---,0.00,104.00,VWS V14.01,2013-02-14 14:59:00,
2013-02-14 10:00:00,33.4,31.6,29.87,SSW,195,5.0,12.0,93,0.01,,---,0.01,132.00,VWS V14.01,2013-02-14 15:00:00,
2013-02-14 10:04:00,32.9,31.4,29.88,SSW,207,6.0,10.0,94,0.00,,---,0.00,72.00,VWS V14.01,2013-02-14 15:04:00,
2013-02-14 10:09:00,33.0,31.2,29.88,SSW,200,10.0,11.0,93,0.00,,---,0.00,54.00,VWS V14.01,2013-02-14 15:09:00,
2013-02-14 10:14:00,33.0,31.5,29.88,SSW,209,5.0,13.0,94,0.00,,---,0.00,83.00,VWS V14.01,2013-02-14 15:14:00,
2013-02-14 10:19:00,33.1,31.6,29.88,SW,214,8.0,13.0,94,0.00,,---,0.00,130.00,VWS V14.01,2013-02-14 15:19:00,
2013-02-14 10:24:00,33.2,31.7,29.87,SSW,194,11.0,15.0,94,0.00,,---,0.00,174.00,VWS V14.01,2013-02-14 15:24:00,
2013-02-14 10:29:00,33.2,31.7,29.88,SW,223,10.0,15.0,94,0.00,,---,0.00,90.00,VWS V14.01,2013-02-14 15:29:00,
2013-02-14 10:30:00,33.5,31.7,29.88,SSW,200,4.0,11.0,93,0.01,,---,0.01,111.00,VWS V14.01,2013-02-14 15:30:00,
2013-02-14 10:34:00,33.2,31.4,29.88,SSW,213,5.0,12.0,93,0.00,,---,0.00,93.00,VWS V14.01,2013-02-14 15:34:00,
2013-02-14 10:39:00,33.2,31.4,29.87,SSW,209,4.0,12.0,93,0.00,,---,0.00,130.00,VWS V14.01,2013-02-14 15:39:00,
2013-02-14 10:44:00,33.3,31.5,29.87,SSW,194,6.0,12.0,93,0.01,,---,0.01,151.00,VWS V14.01,2013-02-14 15:44:00,
2013-02-14 10:49:00,33.3,31.5,29.87,SW,221,2.0,12.0,93,0.01,,---,0.01,149.00,VWS V14.01,2013-02-14 15:49:00,
2013-02-14 10:54:00,33.3,31.5,29.87,SW,229,6.0,12.0,93,0.01,,---,0.01,183.00,VWS V14.01,2013-02-14 15:54:00,
2013-02-14 10:59:00,33.4,31.6,29.87,SSW,207,9.0,12.0,93,0.01,,---,0.01,169.00,VWS V14.01,2013-02-14 15:59:00,
2013-02-14 11:00:00,33.8,32.0,29.88,SSE,161,3.0,10.0,93,0.02,,---,0.02,98.00,VWS V14.01,2013-02-14 16:00:00,
2013-02-14 11:04:00,33.4,31.6,29.87,SSW,208,4.0,9.0,93,0.01,,---,0.01,181.00,VWS V14.01,2013-02-14 16:04:00,
2013-02-14 11:09:00,33.4,31.6,29.87,SSW,207,4.0,11.0,93,0.01,,---,0.01,163.00,VWS V14.01,2013-02-14 16:09:00,
2013-02-14 11:14:00,33.5,31.7,29.87,SSW,213,4.0,11.0,93,0.01,,---,0.01,135.00,VWS V14.01,2013-02-14 16:14:00,
2013-02-14 11:19:00,33.5,31.7,29.88,SSW,198,6.0,11.0,93,0.01,,---,0.01,123.00,VWS V14.01,2013-02-14 16:19:00,
2013-02-14 11:24:00,33.5,31.7,29.88,South,175,3.0,11.0,93,0.01,,---,0.01,104.00,VWS V14.01,2013-02-14 16:24:00,
2013-02-14 11:29:00,33.6,31.8,29.88,SSW,207,2.0,11.0,93,0.01,,---,0.01,111.00,VWS V14.01,2013-02-14 16:29:00,
2013-02-14 11:30:00,34.2,32.4,29.87,South,190,2.0,16.0,93,0.02,,---,0.03,90.00,VWS V14.01,2013-02-14 16:30:00,
2013-02-14 11:34:00,33.5,31.7,29.88,South,190,3.0,6.0,93,0.01,,---,0.01,95.00,VWS V14.01,2013-02-14 16:34:00,
2013-02-14 11:40:00,33.6,31.8,29.88,SSW,198,3.0,10.0,93,0.01,,---,0.01,97.00,VWS V14.01,2013-02-14 16:40:00,
2013-02-14 11:45:00,33.6,31.8,29.88,South,183,4.0,10.0,93,0.01,,---,0.01,98.00,VWS V14.01,2013-02-14 16:45:00,
2013-02-14 11:50:00,33.7,31.9,29.88,South,175,6.0,10.0,93,0.02,,---,0.02,102.00,VWS V14.01,2013-02-14 16:50:00,
2013-02-14 11:55:00,33.7,31.9,29.88,SSW,205,3.0,10.0,93,0.02,,---,0.02,98.00,VWS V14.01,2013-02-14 16:55:00,
2013-02-14 12:00:00,33.8,32.0,29.88,SSE,162,2.0,10.0,93,0.02,,---,0.02,98.00,VWS V14.01,2013-02-14 17:00:00,
2013-02-14 12:05:00,33.9,32.1,29.88,SSE,163,2.0,6.0,93,0.01,,---,0.02,109.00,VWS V14.01,2013-02-14 17:05:00,
2013-02-14 12:10:00,33.9,32.1,29.87,South,184,4.0,8.0,93,0.01,,---,0.02,107.00,VWS V14.01,2013-02-14 17:10:00,
2013-02-14 12:15:00,34.0,32.2,29.87,South,169,2.0,16.0,93,0.01,,---,0.02,86.00,VWS V14.01,2013-02-14 17:15:00,
2013-02-14 12:20:00,34.1,32.3,29.87,South,175,4.0,16.0,93,0.01,,---,0.02,84.00,VWS V14.01,2013-02-14 17:20:00,
2013-02-14 12:25:00,34.1,32.3,29.87,SSW,193,7.0,16.0,93,0.01,,---,0.02,77.00,VWS V14.01,2013-02-14 17:25:00,
2013-02-14 12:30:00,34.2,32.4,29.87,South,169,3.0,16.0,93,0.02,,---,0.03,90.00,VWS V14.01,2013-02-14 17:30:00,
2013-02-14 12:35:00,34.2,32.4,29.86,SW,217,9.0,9.0,93,0.02,,---,0.03,102.00,VWS V14.01,2013-02-14 17:35:00,
2013-02-14 12:40:00,34.3,32.5,29.86,South,190,3.0,9.0,93,0.02,,---,0.03,102.00,VWS V14.01,2013-02-14 17:40:00,
2013-02-14 12:45:00,34.4,32.6,29.86,South,187,0.0,9.0,93,0.02,,---,0.03,102.00,VWS V14.01,2013-02-14 17:45:00,
2013-02-14 12:50:00,34.4,32.6,29.86,SSW,195,5.0,9.0,93,0.02,,---,0.03,98.00,VWS V14.01,2013-02-14 17:50:00,
2013-02-14 12:55:00,34.5,32.7,29.85,South,180,4.0,9.0,93,0.02,,---,0.03,97.00,VWS V14.01,2013-02-14 17:55:00,
2013-02-14 13:00:00,34.6,32.8,29.85,SSW,202,3.0,9.0,93,0.02,,---,0.03,93.00,VWS V14.01,2013-02-14 18:00:00,
2013-02-14 13:05:00,34.6,32.8,29.85,South,183,3.0,6.0,93,0.01,,---,0.03,95.00,VWS V14.01,2013-02-14 18:05:00,
2013-02-14 13:10:00,34.7,32.9,29.84,South,184,3.0,6.0,93,0.01,,---,0.03,102.00,VWS V14.01,2013-02-14 18:10:00,
2013-02-14 13:15:00,34.7,32.9,29.84,South,182,1.0,6.0,93,0.01,,---,0.03,105.00,VWS V14.01,2013-02-14 18:15:00,
2013-02-14 13:20:00,34.8,33.0,29.84,South,181,2.0,9.0,93,0.01,,---,0.03,135.00,VWS V14.01,2013-02-14 18:20:00,
2013-02-14 13:25:00,34.9,33.1,29.84,SSE,168,0.0,9.0,93,0.01,,---,0.03,123.00,VWS V14.01,2013-02-14 18:25:00,
2013-02-14 13:30:00,35.0,33.2,29.84,SSW,204,3.0,9.0,93,0.01,,---,0.03,121.00,VWS V14.01,2013-02-14 18:30:00,
2013-02-14 13:35:00,35.1,33.3,29.83,SSE,165,3.0,6.0,93,0.01,,---,0.04,128.00,VWS V14.01,2013-02-14 18:35:00,
2013-02-14 13:40:00,35.2,33.4,29.83,SSW,201,4.0,9.0,93,0.01,,---,0.04,120.00,VWS V14.01,2013-02-14 18:40:00,
2013-02-14 13:45:00,35.2,33.4,29.83,South,175,2.0,14.0,93,0.01,,---,0.04,111.00,VWS V14.01,2013-02-14 18:45:00,
2013-02-14 13:50:00,35.2,33.4,29.83,SSW,210,5.0,14.0,93,0.01,,---,0.04,88.00,VWS V14.01,2013-02-14 18:50:00,
2013-02-14 13:55:00,35.3,33.5,29.83,SSW,194,4.0,14.0,93,0.01,,---,0.04,74.00,VWS V14.01,2013-02-14 18:55:00,
2013-02-14 14:00:00,35.3,33.2,29.83,South,189,4.0,14.0,92,0.01,,---,0.04,100.00,VWS V14.01,2013-02-14 19:00:00,
2013-02-14 14:05:00,35.3,33.2,29.83,SSW,200,5.0,11.0,92,0.01,,---,0.04,81.00,VWS V14.01,2013-02-14 19:05:00,
2013-02-14 14:10:00,35.4,33.3,29.83,South,175,4.0,11.0,92,0.01,,---,0.04,111.00,VWS V14.01,2013-02-14 19:10:00,
2013-02-14 14:15:00,35.5,33.4,29.83,SSE,167,5.0,13.0,92,0.01,,---,0.04,111.00,VWS V14.01,2013-02-14 19:15:00,
2013-02-14 14:20:00,35.6,33.5,29.83,SSE,165,4.0,13.0,92,0.01,,---,0.04,137.00,VWS V14.01,2013-02-14 19:20:00,
2013-02-14 14:25:00,35.7,33.6,29.83,SSW,208,3.0,13.0,92,0.01,,---,0.04,100.00,VWS V14.01,2013-02-14 19:25:00,
2013-02-14 14:30:00,35.9,33.8,29.83,SSW,205,6.0,13.0,92,0.01,,---,0.04,139.00,VWS V14.01,2013-02-14 19:30:00,
2013-02-14 14:35:00,36.0,33.9,29.82,SSW,195,4.0,9.0,92,0.01,,---,0.04,248.00,VWS V14.01,2013-02-14 19:35:00,
2013-02-14 14:40:00,36.3,34.2,29.82,SSW,194,7.0,9.0,92,0.01,,---,0.04,156.00,VWS V14.01,2013-02-14 19:40:00,
2013-02-14 14:45:00,36.4,34.3,29.81,SSE,163,1.0,9.0,92,0.01,,---,0.04,179.00,VWS V14.01,2013-02-14 19:45:00,
2013-02-14 14:50:00,36.7,34.6,29.81,South,169,2.0,10.0,92,0.01,,---,0.04,186.00,VWS V14.01,2013-02-14 19:50:00,
2013-02-14 14:55:00,36.9,34.8,29.81,SW,227,5.0,10.0,92,0.01,,---,0.04,176.00,VWS V14.01,2013-02-14 19:55:00,
2013-02-14 15:00:00,37.1,35.0,29.82,SSW,200,10.0,10.0,92,0.00,,---,0.04,105.00,VWS V14.01,2013-02-14 20:00:00,
2013-02-14 15:05:00,37.1,35.0,29.81,South,179,6.0,13.0,92,0.00,,---,0.04,142.00,VWS V14.01,2013-02-14 20:05:00,
2013-02-14 15:10:00,37.2,34.8,29.81,South,169,3.0,13.0,91,0.00,,---,0.04,142.00,VWS V14.01,2013-02-14 20:10:00,
2013-02-14 15:15:00,37.4,35.0,29.81,South,185,2.0,13.0,91,0.00,,---,0.04,178.00,VWS V14.01,2013-02-14 20:15:00,
2013-02-14 15:20:00,37.7,35.3,29.81,SSW,194,3.0,13.0,91,0.00,,---,0.04,234.00,VWS V14.01,2013-02-14 20:20:00,
2013-02-14 15:25:00,37.9,35.5,29.81,South,186,2.0,13.0,91,0.00,,---,0.04,202.00,VWS V14.01,2013-02-14 20:25:00,
2013-02-14 15:30:00,38.1,35.7,29.81,South,174,3.0,4.0,91,0.00,,---,0.04,195.00,VWS V14.01,2013-02-14 20:30:00,
2013-02-14 15:35:00,38.3,35.9,29.81,South,188,5.0,10.0,91,0.00,,---,0.04,239.00,VWS V14.01,2013-02-14 20:35:00,
2013-02-14 15:40:00,38.4,35.7,29.80,South,181,5.0,11.0,90,0.00,,---,0.04,163.00,VWS V14.01,2013-02-14 20:40:00,
2013-02-14 15:45:00,38.6,35.9,29.80,SSW,193,6.0,11.0,90,0.00,,---,0.04,192.00,VWS V14.01,2013-02-14 20:45:00,
2013-02-14 15:50:00,38.8,36.1,29.80,SSW,198,4.0,11.0,90,0.00,,---,0.04,190.00,VWS V14.01,2013-02-14 20:50:00,
2013-02-14 15:55:00,39.1,36.4,29.80,South,175,6.0,11.0,90,0.00,,---,0.04,183.00,VWS V14.01,2013-02-14 20:55:00,
2013-02-14 16:00:00,39.3,36.6,29.80,South,189,3.0,6.0,90,0.00,,---,0.04,193.00,VWS V14.01,2013-02-14 21:00:00,
2013-02-14 16:05:00,39.6,36.9,29.79,SSW,198,5.0,13.0,90,0.00,,---,0.04,420.00,VWS V14.01,2013-02-14 21:05:00,
2013-02-14 16:10:00,40.0,37.0,29.79,SSE,161,6.0,13.0,89,0.00,,---,0.04,320.00,VWS V14.01,2013-02-14 21:10:00,
2013-02-14 16:15:00,40.3,37.0,29.79,South,183,5.0,14.0,88,0.00,,---,0.04,288.00,VWS V14.01,2013-02-14 21:15:00,
2013-02-14 16:20:00,40.6,37.3,29.79,South,188,3.0,14.0,88,0.00,,---,0.04,294.00,VWS V14.01,2013-02-14 21:20:00,
2013-02-14 16:25:00,40.9,37.6,29.79,SW,217,9.0,14.0,88,0.00,,---,0.04,216.00,VWS V14.01,2013-02-14 21:25:00,
2013-02-14 16:30:00,41.1,37.5,29.79,SSW,192,7.0,12.0,87,0.00,,---,0.04,91.00,VWS V14.01,2013-02-14 21:30:00,
2013-02-14 16:36:00,41.1,37.2,29.79,SSW,194,3.0,12.0,86,0.00,,---,0.04,325.00,VWS V14.01,2013-02-14 21:36:00,
2013-02-14 16:41:00,41.4,37.8,29.79,South,177,7.0,12.0,87,0.00,,---,0.04,229.00,VWS V14.01,2013-02-14 21:41:00,
2013-02-14 16:46:00,41.7,37.8,29.79,South,185,4.0,12.0,86,0.00,,---,0.04,202.00,VWS V14.01,2013-02-14 21:46:00,
2013-02-14 16:51:00,41.9,38.0,29.79,SSW,194,3.0,12.0,86,0.00,,---,0.04,179.00,VWS V14.01,2013-02-14 21:51:00,
2013-02-14 16:56:00,42.2,38.0,29.79,SE,140,2.0,12.0,85,0.00,,---,0.04,151.00,VWS V14.01,2013-02-14 21:56:00,
2013-02-14 17:00:00,41.7,37.5,29.80,South,184,4.0,5.0,85,0.00,,---,0.04,5.00,VWS V14.01,2013-02-14 22:00:00,
2013-02-14 17:01:00,42.3,38.1,29.79,SSW,207,3.0,4.0,85,0.00,,---,0.04,134.00,VWS V14.01,2013-02-14 22:01:00,
2013-02-14 17:06:00,42.3,37.8,29.80,SSW,209,2.0,11.0,84,0.00,,---,0.04,118.00,VWS V14.01,2013-02-14 22:06:00,
2013-02-14 17:11:00,42.4,37.9,29.80,SW,225,6.0,11.0,84,0.00,,---,0.04,98.00,VWS V14.01,2013-02-14 22:11:00,
2013-02-14 17:16:00,42.4,37.9,29.80,SSW,209,4.0,11.0,84,0.00,,---,0.04,81.00,VWS V14.01,2013-02-14 22:16:00,
2013-02-14 17:21:00,42.4,37.9,29.80,South,188,6.0,11.0,84,0.00,,---,0.04,21.00,VWS V14.01,2013-02-14 22:21:00,
2013-02-14 17:26:00,42.3,37.8,29.81,SSW,213,2.0,11.0,84,0.00,,---,0.04,26.00,VWS V14.01,2013-02-14 22:26:00,
2013-02-14 17:30:00,42.0,37.5,29.81,South,169,2.0,11.0,84,0.00,,---,0.04,0.00,VWS V14.01,2013-02-14 22:30:00,
2013-02-14 17:31:00,42.1,37.6,29.81,SSW,213,1.0,3.0,84,0.00,,---,0.04,21.00,VWS V14.01,2013-02-14 22:31:00,
2013-02-14 17:36:00,42.0,37.5,29.80,SSW,213,0.0,3.0,84,0.00,,---,0.04,37.00,VWS V14.01,2013-02-14 22:36:00,
2013-02-14 17:41:00,42.0,37.8,29.80,SSW,212,2.0,3.0,85,0.00,,---,0.04,23.00,VWS V14.01,2013-02-14 22:41:00,
2013-02-14 17:46:00,41.9,37.7,29.80,SSW,212,0.0,3.0,85,0.00,,---,0.04,9.00,VWS V14.01,2013-02-14 22:46:00,
2013-02-14 17:51:00,41.7,37.5,29.81,SSW,212,1.0,3.0,85,0.00,,---,0.04,12.00,VWS V14.01,2013-02-14 22:51:00,
2013-02-14 17:56:00,41.7,37.5,29.80,South,182,1.0,5.0,85,0.00,,---,0.04,7.00,VWS V14.01,2013-02-14 22:56:00,
2013-02-14 18:00:00,42.9,37.8,29.81,SSE,163,3.0,9.0,82,0.00,,---,0.04,0.00,VWS V14.01,2013-02-14 23:00:00,
2013-02-14 18:01:00,41.7,37.5,29.80,South,178,3.0,6.0,85,0.00,,---,0.04,5.00,VWS V14.01,2013-02-14 23:01:00,
2013-02-14 18:06:00,41.6,37.4,29.80,South,180,2.0,6.0,85,0.00,,---,0.04,0.00,VWS V14.01,2013-02-14 23:06:00,
2013-02-14 18:11:00,41.6,37.4,29.81,South,169,3.0,6.0,85,0.00,,---,0.04,0.00,VWS V14.01,2013-02-14 23:11:00,
2013-02-14 18:16:00,41.6,37.4,29.81,South,183,2.0,7.0,85,0.00,,---,0.04,0.00,VWS V14.01,2013-02-14 23:16:00,
2013-02-14 18:21:00,41.6,37.4,29.81,SSE,166,2.0,7.0,85,0.00,,---,0.04,0.00,VWS V14.01,2013-02-14 23:21:00,
2013-02-14 18:26:00,41.8,37.6,29.81,South,182,5.0,11.0,85,0.00,,---,0.04,0.00,VWS V14.01,2013-02-14 23:26:00,
2013-02-14 18:30:00,42.7,37.9,29.84,WSW,239,3.0,26.0,83,0.00,,---,0.04,0.00,VWS V14.01,2013-02-14 23:30:00,
2013-02-14 18:31:00,42.0,37.5,29.81,SSE,163,3.0,3.0,84,0.00,,---,0.04,0.00,VWS V14.01,2013-02-14 23:31:00,
2013-02-14 18:36:00,42.1,37.6,29.81,SSE,161,1.0,8.0,84,0.00,,---,0.04,0.00,VWS V14.01,2013-02-14 23:36:00,
2013-02-14 18:41:00,42.2,37.7,29.81,SSE,164,4.0,8.0,84,0.00,,---,0.04,0.00,VWS V14.01,2013-02-14 23:41:00,
2013-02-14 18:46:00,42.4,37.6,29.81,SSE,154,7.0,8.0,83,0.00,,---,0.04,0.00,VWS V14.01,2013-02-14 23:46:00,
2013-02-14 18:51:00,42.6,37.8,29.81,South,176,4.0,9.0,83,0.00,,---,0.04,0.00,VWS V14.01,2013-02-14 23:51:00,
2013-02-14 18:56:00,42.8,37.7,29.80,South,182,4.0,9.0,82,0.00,,---,0.04,0.00,VWS V14.01,2013-02-14 23:56:00,
2013-02-14 19:00:00,41.0,36.2,29.84,SSW,209,3.0,10.0,83,0.00,,---,0.04,0.00,VWS V14.01,2013-02-15 00:00:00,
2013-02-14 19:01:00,42.9,37.8,29.81,South,179,2.0,4.0,82,0.00,,---,0.04,0.00,VWS V14.01,2013-02-15 00:01:00,
2013-02-14 19:06:00,42.9,37.5,29.82,SW,217,3.0,9.0,81,0.00,,---,0.04,0.00,VWS V14.01,2013-02-15 00:06:00,
2013-02-14 19:11:00,43.1,38.0,29.83,SW,215,10.0,26.0,82,0.00,,---,0.04,0.00,VWS V14.01,2013-02-15 00:11:00,
2013-02-14 19:16:00,43.3,38.2,29.84,WSW,252,10.0,26.0,82,0.00,,---,0.04,0.00,VWS V14.01,2013-02-15 00:16:00,
2013-02-14 19:21:00,43.2,38.1,29.84,WSW,254,9.0,26.0,82,0.00,,---,0.04,0.00,VWS V14.01,2013-02-15 00:21:00,
2013-02-14 19:26:00,42.9,37.8,29.84,WSW,239,10.0,26.0,82,0.00,,---,0.04,0.00,VWS V14.01,2013-02-15 00:26:00,
2013-02-14 19:30:00,40.2,36.1,29.85,SW,216,0.0,4.0,85,0.00,,---,0.04,0.00,VWS V14.01,2013-02-15 00:30:00,
2013-02-14 19:31:00,42.6,37.8,29.84,WSW,248,6.0,6.0,83,0.00,,---,0.04,0.00,VWS V14.01,2013-02-15 00:31:00,
2013-02-14 19:36:00,42.2,37.4,29.84,WSW,237,5.0,10.0,83,0.00,,---,0.04,0.00,VWS V14.01,2013-02-15 00:36:00,
2013-02-14 19:41:00,41.9,37.1,29.84,SW,234,4.0,10.0,83,0.00,,---,0.04,0.00,VWS V14.01,2013-02-15 00:41:00,
2013-02-14 19:46:00,41.6,36.8,29.84,SW,217,3.0,10.0,83,0.00,,---,0.04,0.00,VWS V14.01,2013-02-15 00:46:00,
2013-02-14 19:51:00,41.4,36.6,29.84,SW,236,3.0,10.0,83,0.00,,---,0.04,0.00,VWS V14.01,2013-02-15 00:51:00,
2013-02-14 19:56:00,41.2,36.4,29.84,SW,227,5.0,10.0,83,0.00,,---,0.04,0.00,VWS V14.01,2013-02-15 00:56:00,
2013-02-14 20:00:00,38.9,35.4,29.86,SW,220,2.0,5.0,87,0.00,,---,0.04,0.00,VWS V14.01,2013-02-15 01:00:00,
2013-02-14 20:01:00,41.0,36.2,29.84,SSW,213,4.0,4.0,83,0.00,,---,0.04,0.00,VWS V14.01,2013-02-15 01:01:00,
2013-02-14 20:06:00,40.9,36.5,29.84,SW,215,1.0,4.0,84,0.00,,---,0.04,0.00,VWS V14.01,2013-02-15 01:06:00,
2013-02-14 20:11:00,40.7,36.2,29.84,SW,215,1.0,4.0,84,0.00,,---,0.04,0.00,VWS V14.01,2013-02-15 01:11:00,
2013-02-14 20:16:00,40.6,36.2,29.84,SW,215,1.0,4.0,84,0.00,,---,0.04,0.00,VWS V14.01,2013-02-15 01:16:00,
2013-02-14 20:21:00,40.5,36.3,29.84,SW,215,1.0,4.0,85,0.00,,---,0.04,0.00,VWS V14.01,2013-02-15 01:21:00,
2013-02-14 20:26:00,40.3,36.2,29.85,SW,216,0.0,4.0,85,0.00,,---,0.04,0.00,VWS V14.01,2013-02-15 01:26:00,
2013-02-14 20:30:00,38.5,35.0,29.87,WSW,246,3.0,7.0,87,0.00,,---,0.04,0.00,VWS V14.01,2013-02-15 01:30:00,
2013-02-14 20:31:00,40.2,36.1,29.85,SW,216,0.0,0.0,85,0.00,,---,0.04,0.00,VWS V14.01,2013-02-15 01:31:00,
2013-02-14 20:36:00,40.0,35.9,29.85,SW,216,0.0,2.0,85,0.00,,---,0.04,0.00,VWS V14.01,2013-02-15 01:36:00,
2013-02-14 20:41:00,39.7,35.6,29.85,SW,216,0.0,2.0,85,0.00,,---,0.04,0.00,VWS V14.01,2013-02-15 01:41:00,
2013-02-14 20:46:00,39.4,35.0,29.85,SW,216,1.0,3.0,84,0.00,,---,0.04,0.00,VWS V14.01,2013-02-15 01:46:00,
2013-02-14 20:51:00,39.1,35.0,29.85,SW,217,3.0,5.0,85,0.00,,---,0.04,0.00,VWS V14.01,2013-02-15 01:51:00,
2013-02-14 20:56:00,39.0,35.2,29.85,SW,220,1.0,5.0,86,0.00,,---,0.04,0.00,VWS V14.01,2013-02-15 01:56:00,
2013-02-14 21:00:00,39.8,35.4,29.89,West,272,7.0,13.0,84,0.00,,---,0.04,0.00,VWS V14.01,2013-02-15 02:00:00,
2013-02-14 21:01:00,38.9,35.4,29.85,SW,220,3.0,3.0,87,0.00,,---,0.04,0.00,VWS V14.01,2013-02-15 02:01:00,
2013-02-14 21:06:00,38.9,35.4,29.86,SW,220,0.0,3.0,87,0.00,,---,0.04,0.00,VWS V14.01,2013-02-15 02:06:00,
2013-02-14 21:11:00,38.7,35.2,29.86,West,261,3.0,4.0,87,0.00,,---,0.04,0.00,VWS V14.01,2013-02-15 02:11:00,
2013-02-14 21:16:00,38.6,35.1,29.86,WSW,240,3.0,5.0,87,0.00,,---,0.04,0.00,VWS V14.01,2013-02-15 02:16:00,
2013-02-14 21:21:00,38.4,34.9,29.86,WSW,241,4.0,6.0,87,0.00,,---,0.04,0.00,VWS V14.01,2013-02-15 02:21:00,
2013-02-14 21:26:00,38.5,35.0,29.87,SW,232,5.0,7.0,87,0.00,,---,0.04,0.00,VWS V14.01,2013-02-15 02:26:00,
2013-02-14 21:30:00,38.6,33.6,29.90,West,275,3.0,14.0,82,0.00,,---,0.04,0.00,VWS V14.01,2013-02-15 02:30:00,
2013-02-14 21:31:00,38.5,35.0,29.87,West,259,5.0,8.0,87,0.00,,---,0.04,0.00,VWS V14.01,2013-02-15 02:31:00,
2013-02-14 21:36:00,38.7,35.2,29.88,West,259,5.0,12.0,87,0.00,,---,0.04,0.00,VWS V14.01,2013-02-15 02:36:00,
2013-02-14 21:41:00,39.2,35.4,29.88,West,261,4.0,13.0,86,0.00,,---,0.04,0.00,VWS V14.01,2013-02-15 02:41:00,
2013-02-14 21:46:00,39.5,35.4,29.88,WNW,291,6.0,13.0,85,0.00,,---,0.04,0.00,VWS V14.01,2013-02-15 02:46:00,
2013-02-14 21:51:00,39.8,35.7,29.88,West,279,4.0,13.0,85,0.00,,---,0.04,0.00,VWS V14.01,2013-02-15 02:51:00,
2013-02-14 21:56:00,39.8,35.4,29.89,West,270,5.0,13.0,84,0.00,,---,0.04,0.00,VWS V14.01,2013-02-15 02:56:00,
2013-02-14 22:00:00,37.5,32.2,29.92,WNW,303,1.0,13.0,81,0.00,,---,0.04,0.00,VWS V14.01,2013-02-15 03:00:00,
2013-02-14 22:01:00,39.8,35.4,29.89,WNW,287,3.0,7.0,84,0.00,,---,0.04,0.00,VWS V14.01,2013-02-15 03:01:00,
2013-02-14 22:06:00,39.6,35.2,29.89,WNW,288,3.0,14.0,84,0.00,,---,0.04,0.00,VWS V14.01,2013-02-15 03:06:00,
2013-02-14 22:12:00,39.4,35.0,29.89,West,265,4.0,14.0,84,0.00,,---,0.04,0.00,VWS V14.01,2013-02-15 03:12:00,
2013-02-14 22:17:00,39.2,34.8,29.89,WNW,284,11.0,14.0,84,0.00,,---,0.04,0.00,VWS V14.01,2013-02-15 03:17:00,
2013-02-14 22:22:00,39.0,34.3,29.90,West,261,7.0,14.0,83,0.00,,---,0.04,0.00,VWS V14.01,2013-02-15 03:22:00,
2013-02-14 22:27:00,38.8,33.8,29.90,WNW,291,2.0,14.0,82,0.00,,---,0.04,0.00,VWS V14.01,2013-02-15 03:27:00,
2013-02-14 22:30:00,36.6,31.0,29.92,West,271,4.0,11.0,80,0.00,,---,0.04,0.00,VWS V14.01,2013-02-15 03:30:00,
2013-02-14 22:32:00,38.5,33.2,29.90,West,269,8.0,8.0,81,0.00,,---,0.04,0.00,VWS V14.01,2013-02-15 03:32:00,
2013-02-14 22:37:00,38.2,32.6,29.90,WNW,282,7.0,13.0,80,0.00,,---,0.04,0.00,VWS V14.01,2013-02-15 03:37:00,
2013-02-14 22:42:00,38.0,32.4,29.91,West,270,7.0,13.0,80,0.00,,---,0.04,0.00,VWS V14.01,2013-02-15 03:42:00,
2013-02-14 22:47:00,37.8,32.2,29.91,WNW,284,2.0,13.0,80,0.00,,---,0.04,0.00,VWS V14.01,2013-02-15 03:47:00,
2013-02-14 22:52:00,37.6,32.0,29.91,NW,312,4.0,13.0,80,0.00,,---,0.04,0.00,VWS V14.01,2013-02-15 03:52:00,
2013-02-14 22:57:00,37.5,32.2,29.92,WNW,296,4.0,13.0,81,0.00,,---,0.04,0.00,VWS V14.01,2013-02-15 03:57:00,
2013-02-14 23:00:00,35.9,30.3,29.92,West,259,2.0,10.0,80,0.00,,---,0.04,0.00,VWS V14.01,2013-02-15 04:00:00,
2013-02-14 23:02:00,37.5,32.2,29.92,WNW,297,4.0,4.0,81,0.00,,---,0.04,0.00,VWS V14.01,2013-02-15 04:02:00,
2013-02-14 23:07:00,37.3,32.0,29.92,WNW,297,7.0,11.0,81,0.00,,---,0.04,0.00,VWS V14.01,2013-02-15 04:07:00,
2013-02-14 23:12:00,37.3,32.0,29.92,WNW,302,3.0,11.0,81,0.00,,---,0.04,0.00,VWS V14.01,2013-02-15 04:12:00,
2013-02-14 23:17:00,37.1,31.5,29.92,West,280,5.0,11.0,80,0.00,,---,0.04,0.00,VWS V14.01,2013-02-15 04:17:00,
2013-02-14 23:22:00,36.9,31.3,29.92,West,274,1.0,11.0,80,0.00,,---,0.04,0.00,VWS V14.01,2013-02-15 04:22:00,
2013-02-14 23:27:00,36.7,31.4,29.92,WNW,284,3.0,11.0,81,0.00,,---,0.04,0.00,VWS V14.01,2013-02-15 04:27:00,
2013-02-14 23:30:00,35.3,29.8,29.92,WSW,244,5.0,9.0,80,0.00,,---,0.00,0.00,VWS V14.01,2013-02-15 04:30:00,
2013-02-14 23:32:00,36.5,30.9,29.92,WNW,282,4.0,5.0,80,0.00,,---,0.04,0.00,VWS V14.01,2013-02-15 04:32:00,
2013-02-14 23:37:00,36.4,30.8,29.92,West,275,4.0,10.0,80,0.00,,---,0.04,0.00,VWS V14.01,2013-02-15 04:37:00,
2013-02-14 23:42:00,36.3,30.7,29.92,West,271,6.0,10.0,80,0.00,,---,0.04,0.00,VWS V14.01,2013-02-15 04:42:00,
2013-02-14 23:47:00,36.2,30.6,29.92,West,259,5.0,10.0,80,0.00,,---,0.04,0.00,VWS V14.01,2013-02-15 04:47:00,
2013-02-14 23:52:00,36.1,30.5,29.92,WSW,254,4.0,10.0,80,0.00,,---,0.04,0.00,VWS V14.01,2013-02-15 04:52:00,
2013-02-14 23:57:00,36.0,30.4,29.92,WSW,256,3.0,10.0,80,0.00,,---,0.04,0.00,VWS V14.01,2013-02-15 04:57:00,